sensor_id;sensor_type;location;lat;lon;timestamp;pressure;altitude;pressure_sealevel;temperature;humidity
4273;BME280;63887;53.656;9.810;2023-05-12T00:02:08;101719.28;;;12.06;92.68
4273;BME280;63887;53.656;9.810;2023-05-12T00:04:34;101713.88;;;12.09;92.46
4273;BME280;63887;53.656;9.810;2023-05-12T00:07:01;101723.94;;;12.00;92.80
4273;BME280;63887;53.656;9.810;2023-05-12T00:09:28;101722.81;;;12.05;92.86
4273;BME280;63887;53.656;9.810;2023-05-12T00:11:54;101722.59;;;11.91;94.15
4273;BME280;63887;53.656;9.810;2023-05-12T00:14:22;101724.94;;;11.97;92.79
4273;BME280;63887;53.656;9.810;2023-05-12T00:16:48;101721.53;;;11.95;93.44
4273;BME280;63887;53.656;9.810;2023-05-12T00:19:16;101725.63;;;12.01;91.60
4273;BME280;63887;53.656;9.810;2023-05-12T00:21:42;101721.22;;;12.01;91.34
4273;BME280;63887;53.656;9.810;2023-05-12T00:24:08;101727.97;;;11.88;92.75
4273;BME280;63887;53.656;9.810;2023-05-12T00:26:34;101727.09;;;11.87;92.16
4273;BME280;63887;53.656;9.810;2023-05-12T00:29:01;101723.19;;;11.77;93.62
4273;BME280;63887;53.656;9.810;2023-05-12T00:31:29;101727.25;;;11.84;92.05
4273;BME280;63887;53.656;9.810;2023-05-12T00:33:55;101723.91;;;11.81;93.02
4273;BME280;63887;53.656;9.810;2023-05-12T00:36:22;101728.25;;;11.82;93.02
4273;BME280;63887;53.656;9.810;2023-05-12T00:38:48;101729.41;;;11.95;90.76
4273;BME280;63887;53.656;9.810;2023-05-12T00:41:14;101732.19;;;11.92;91.12
4273;BME280;63887;53.656;9.810;2023-05-12T00:43:41;101731.50;;;11.87;91.54
4273;BME280;63887;53.656;9.810;2023-05-12T00:46:07;101736.22;;;11.99;91.24
4273;BME280;63887;53.656;9.810;2023-05-12T00:48:35;101733.81;;;11.94;92.33
4273;BME280;63887;53.656;9.810;2023-05-12T00:51:01;101738.38;;;12.10;91.06
4273;BME280;63887;53.656;9.810;2023-05-12T00:53:28;101732.91;;;12.14;90.13
4273;BME280;63887;53.656;9.810;2023-05-12T00:55:54;101739.16;;;12.49;86.67
4273;BME280;63887;53.656;9.810;2023-05-12T00:58:21;101739.88;;;12.34;87.96
4273;BME280;63887;53.656;9.810;2023-05-12T01:00:47;101736.69;;;12.28;90.23
4273;BME280;63887;53.656;9.810;2023-05-12T01:03:14;101738.81;;;12.57;86.12
4273;BME280;63887;53.656;9.810;2023-05-12T01:05:45;101740.59;;;12.38;88.35
4273;BME280;63887;53.656;9.810;2023-05-12T01:08:12;101740.69;;;12.36;89.11
4273;BME280;63887;53.656;9.810;2023-05-12T01:10:42;101748.13;;;12.45;88.34
4273;BME280;63887;53.656;9.810;2023-05-12T01:13:08;101746.16;;;12.50;86.33
4273;BME280;63887;53.656;9.810;2023-05-12T01:15:34;101751.28;;;12.90;82.69
4273;BME280;63887;53.656;9.810;2023-05-12T01:18:02;101746.72;;;12.57;88.00
4273;BME280;63887;53.656;9.810;2023-05-12T01:20:30;101760.91;;;12.72;85.09
4273;BME280;63887;53.656;9.810;2023-05-12T01:22:58;101754.53;;;12.59;84.98
4273;BME280;63887;53.656;9.810;2023-05-12T01:25:26;101760.28;;;12.67;84.96
4273;BME280;63887;53.656;9.810;2023-05-12T01:27:57;101759.06;;;12.74;84.00
4273;BME280;63887;53.656;9.810;2023-05-12T01:30:24;101757.81;;;13.00;79.85
4273;BME280;63887;53.656;9.810;2023-05-12T01:32:51;101757.28;;;12.74;85.21
4273;BME280;63887;53.656;9.810;2023-05-12T01:35:17;101761.66;;;12.93;84.26
4273;BME280;63887;53.656;9.810;2023-05-12T01:37:44;101754.41;;;12.79;84.10
4273;BME280;63887;53.656;9.810;2023-05-12T01:40:10;101753.44;;;12.63;85.21
4273;BME280;63887;53.656;9.810;2023-05-12T01:42:37;101759.56;;;12.63;84.56
4273;BME280;63887;53.656;9.810;2023-05-12T01:45:05;101765.34;;;12.52;84.08
4273;BME280;63887;53.656;9.810;2023-05-12T01:47:32;101756.16;;;12.42;85.74
4273;BME280;63887;53.656;9.810;2023-05-12T01:49:58;101758.09;;;12.39;86.51
4273;BME280;63887;53.656;9.810;2023-05-12T01:52:24;101764.34;;;12.36;87.36
4273;BME280;63887;53.656;9.810;2023-05-12T01:54:52;101759.34;;;12.30;87.66
4273;BME280;63887;53.656;9.810;2023-05-12T01:57:18;101774.28;;;12.30;86.74
4273;BME280;63887;53.656;9.810;2023-05-12T01:59:44;101770.88;;;12.28;88.63
4273;BME280;63887;53.656;9.810;2023-05-12T02:02:12;101771.44;;;12.34;87.63
4273;BME280;63887;53.656;9.810;2023-05-12T02:04:38;101774.44;;;12.27;88.06
4273;BME280;63887;53.656;9.810;2023-05-12T02:07:04;101773.66;;;12.24;87.20
4273;BME280;63887;53.656;9.810;2023-05-12T02:09:30;101781.41;;;12.28;86.68
4273;BME280;63887;53.656;9.810;2023-05-12T02:11:57;101783.03;;;12.30;86.87
4273;BME280;63887;53.656;9.810;2023-05-12T02:14:23;101788.00;;;12.17;90.14
4273;BME280;63887;53.656;9.810;2023-05-12T02:16:49;101784.44;;;12.18;89.13
4273;BME280;63887;53.656;9.810;2023-05-12T02:19:18;101786.09;;;12.21;89.87
4273;BME280;63887;53.656;9.810;2023-05-12T02:21:44;101782.66;;;12.19;88.15
4273;BME280;63887;53.656;9.810;2023-05-12T02:24:11;101792.16;;;12.23;88.63
4273;BME280;63887;53.656;9.810;2023-05-12T02:26:37;101788.50;;;12.26;87.99
4273;BME280;63887;53.656;9.810;2023-05-12T02:29:03;101786.09;;;12.21;89.60
4273;BME280;63887;53.656;9.810;2023-05-12T02:31:29;101791.28;;;12.22;89.10
4273;BME280;63887;53.656;9.810;2023-05-12T02:33:56;101788.44;;;12.27;87.83
4273;BME280;63887;53.656;9.810;2023-05-12T02:36:25;101796.03;;;12.33;86.50
4273;BME280;63887;53.656;9.810;2023-05-12T02:38:51;101796.91;;;12.34;87.96
4273;BME280;63887;53.656;9.810;2023-05-12T02:41:17;101797.19;;;12.28;87.35
4273;BME280;63887;53.656;9.810;2023-05-12T02:43:43;101802.06;;;12.16;88.25
4273;BME280;63887;53.656;9.810;2023-05-12T02:46:10;101800.38;;;12.15;88.76
4273;BME280;63887;53.656;9.810;2023-05-12T02:48:36;101797.50;;;12.20;87.64
4273;BME280;63887;53.656;9.810;2023-05-12T02:51:02;101793.41;;;12.14;87.74
4273;BME280;63887;53.656;9.810;2023-05-12T02:53:30;101795.03;;;12.17;86.74
4273;BME280;63887;53.656;9.810;2023-05-12T02:55:56;101797.88;;;12.12;88.59
4273;BME280;63887;53.656;9.810;2023-05-12T02:58:23;101790.91;;;12.11;88.24
4273;BME280;63887;53.656;9.810;2023-05-12T03:00:49;101795.81;;;12.19;87.41
4273;BME280;63887;53.656;9.810;2023-05-12T03:03:15;101799.50;;;12.15;87.87
4273;BME280;63887;53.656;9.810;2023-05-12T03:05:41;101798.72;;;12.13;87.64
4273;BME280;63887;53.656;9.810;2023-05-12T03:08:08;101803.06;;;12.14;87.24
4273;BME280;63887;53.656;9.810;2023-05-12T03:10:36;101802.28;;;12.12;88.40
4273;BME280;63887;53.656;9.810;2023-05-12T03:13:02;101795.16;;;12.14;87.69
4273;BME280;63887;53.656;9.810;2023-05-12T03:15:28;101803.13;;;12.12;87.67
4273;BME280;63887;53.656;9.810;2023-05-12T03:17:55;101799.00;;;12.07;89.27
4273;BME280;63887;53.656;9.810;2023-05-12T03:20:21;101799.19;;;12.02;87.91
4273;BME280;63887;53.656;9.810;2023-05-12T03:22:47;101804.84;;;12.13;87.76
4273;BME280;63887;53.656;9.810;2023-05-12T03:25:13;101801.56;;;12.08;88.31
4273;BME280;63887;53.656;9.810;2023-05-12T03:27:42;101810.38;;;12.07;87.86
4273;BME280;63887;53.656;9.810;2023-05-12T03:30:08;101805.13;;;12.07;88.74
4273;BME280;63887;53.656;9.810;2023-05-12T03:32:35;101806.97;;;12.05;88.97
4273;BME280;63887;53.656;9.810;2023-05-12T03:35:03;101816.50;;;12.08;88.31
4273;BME280;63887;53.656;9.810;2023-05-12T03:37:30;101809.84;;;11.99;89.11
4273;BME280;63887;53.656;9.810;2023-05-12T03:39:56;101812.16;;;12.07;88.92
4273;BME280;63887;53.656;9.810;2023-05-12T03:42:22;101813.00;;;12.07;89.19
4273;BME280;63887;53.656;9.810;2023-05-12T03:44:50;101809.53;;;12.07;88.74
4273;BME280;63887;53.656;9.810;2023-05-12T03:47:17;101814.78;;;12.07;88.72
4273;BME280;63887;53.656;9.810;2023-05-12T03:49:43;101804.97;;;12.10;87.90
4273;BME280;63887;53.656;9.810;2023-05-12T03:52:09;101803.00;;;12.15;87.86
4273;BME280;63887;53.656;9.810;2023-05-12T03:54:36;101820.75;;;12.10;88.07
4273;BME280;63887;53.656;9.810;2023-05-12T03:57:02;101815.28;;;12.15;88.49
4273;BME280;63887;53.656;9.810;2023-05-12T03:59:29;101823.19;;;12.15;88.29
4273;BME280;63887;53.656;9.810;2023-05-12T04:01:57;101818.78;;;12.15;88.90
4273;BME280;63887;53.656;9.810;2023-05-12T04:04:23;101823.19;;;12.15;88.92
4273;BME280;63887;53.656;9.810;2023-05-12T04:06:50;101823.19;;;12.15;89.21
4273;BME280;63887;53.656;9.810;2023-05-12T04:09:16;101825.88;;;12.13;90.95
4273;BME280;63887;53.656;9.810;2023-05-12T04:11:42;101826.75;;;12.33;89.59
4273;BME280;63887;53.656;9.810;2023-05-12T04:14:08;101829.22;;;12.37;88.29
4273;BME280;63887;53.656;9.810;2023-05-12T04:16:35;101834.22;;;12.23;88.92
4273;BME280;63887;53.656;9.810;2023-05-12T04:19:03;101836.56;;;12.29;89.39
4273;BME280;63887;53.656;9.810;2023-05-12T04:21:29;101831.09;;;12.34;89.40
4273;BME280;63887;53.656;9.810;2023-05-12T04:23:57;101840.44;;;12.41;88.57
4273;BME280;63887;53.656;9.810;2023-05-12T04:26:23;101840.59;;;12.38;87.84
4273;BME280;63887;53.656;9.810;2023-05-12T04:28:50;101839.59;;;12.40;87.78
4273;BME280;63887;53.656;9.810;2023-05-12T04:31:17;101837.75;;;12.42;89.37
4273;BME280;63887;53.656;9.810;2023-05-12T04:33:43;101841.75;;;12.51;87.24
4273;BME280;63887;53.656;9.810;2023-05-12T04:36:11;101841.03;;;12.66;87.08
4273;BME280;63887;53.656;9.810;2023-05-12T04:38:38;101845.41;;;13.22;83.76
4273;BME280;63887;53.656;9.810;2023-05-12T04:41:04;101850.00;;;13.19;82.51
4273;BME280;63887;53.656;9.810;2023-05-12T04:43:30;101853.25;;;12.86;85.00
4273;BME280;63887;53.656;9.810;2023-05-12T04:45:57;101856.09;;;13.19;83.13
4273;BME280;63887;53.656;9.810;2023-05-12T04:48:23;101854.16;;;13.23;81.91
4273;BME280;63887;53.656;9.810;2023-05-12T04:50:49;101854.09;;;13.05;82.37
4273;BME280;63887;53.656;9.810;2023-05-12T04:53:17;101855.97;;;13.22;81.28
4273;BME280;63887;53.656;9.810;2023-05-12T04:55:43;101863.91;;;13.39;80.28
4273;BME280;63887;53.656;9.810;2023-05-12T04:58:10;101874.19;;;13.80;75.43
4273;BME280;63887;53.656;9.810;2023-05-12T05:00:36;101876.03;;;13.61;77.51
4273;BME280;63887;53.656;9.810;2023-05-12T05:03:02;101879.25;;;13.49;78.80
4273;BME280;63887;53.656;9.810;2023-05-12T05:05:29;101877.22;;;13.36;80.63
4273;BME280;63887;53.656;9.810;2023-05-12T05:07:55;101877.28;;;13.71;76.34
4273;BME280;63887;53.656;9.810;2023-05-12T05:10:23;101874.41;;;13.93;74.73
4273;BME280;63887;53.656;9.810;2023-05-12T05:12:49;101885.38;;;13.85;74.58
4273;BME280;63887;53.656;9.810;2023-05-12T05:15:16;101881.94;;;14.18;73.13
4273;BME280;63887;53.656;9.810;2023-05-12T05:17:42;101888.97;;;13.83;75.48
4273;BME280;63887;53.656;9.810;2023-05-12T05:20:13;101896.03;;;14.34;72.75
4273;BME280;63887;53.656;9.810;2023-05-12T05:22:39;101898.84;;;14.48;72.32
4273;BME280;63887;53.656;9.810;2023-05-12T05:25:06;101901.06;;;14.39;72.69
4273;BME280;63887;53.656;9.810;2023-05-12T05:27:33;101900.66;;;14.64;71.90
4273;BME280;63887;53.656;9.810;2023-05-12T05:30:00;101910.78;;;14.71;71.32
4273;BME280;63887;53.656;9.810;2023-05-12T05:32:26;101908.75;;;14.26;73.98
4273;BME280;63887;53.656;9.810;2023-05-12T05:34:52;101911.69;;;14.37;72.01
4273;BME280;63887;53.656;9.810;2023-05-12T05:37:18;101913.91;;;14.46;72.32
4273;BME280;63887;53.656;9.810;2023-05-12T05:39:45;101916.22;;;14.35;72.70
4273;BME280;63887;53.656;9.810;2023-05-12T05:42:11;101919.09;;;14.13;74.68
4273;BME280;63887;53.656;9.810;2023-05-12T05:44:39;101922.50;;;14.50;72.83
4273;BME280;63887;53.656;9.810;2023-05-12T05:47:05;101924.13;;;14.85;70.85
4273;BME280;63887;53.656;9.810;2023-05-12T05:49:31;101922.00;;;14.92;70.59
4273;BME280;63887;53.656;9.810;2023-05-12T05:51:58;101922.09;;;14.90;70.77
4273;BME280;63887;53.656;9.810;2023-05-12T05:54:24;101924.94;;;15.03;71.06
4273;BME280;63887;53.656;9.810;2023-05-12T05:56:50;101921.50;;;15.01;70.37
4273;BME280;63887;53.656;9.810;2023-05-12T05:59:17;101924.31;;;15.30;68.55
4273;BME280;63887;53.656;9.810;2023-05-12T06:01:44;101927.88;;;14.81;72.04
4273;BME280;63887;53.656;9.810;2023-05-12T06:04:10;101933.91;;;14.33;75.09
4273;BME280;63887;53.656;9.810;2023-05-12T06:06:37;101937.31;;;14.85;70.79
4273;BME280;63887;53.656;9.810;2023-05-12T06:09:03;101939.00;;;15.04;69.66
4273;BME280;63887;53.656;9.810;2023-05-12T06:11:29;101938.81;;;15.07;71.00
4273;BME280;63887;53.656;9.810;2023-05-12T06:13:55;101936.78;;;15.28;69.85
4273;BME280;63887;53.656;9.810;2023-05-12T06:16:22;101939.31;;;15.45;69.30
4273;BME280;63887;53.656;9.810;2023-05-12T06:18:49;101947.03;;;15.65;68.29
4273;BME280;63887;53.656;9.810;2023-05-12T06:21:16;101941.13;;;15.60;68.77
4273;BME280;63887;53.656;9.810;2023-05-12T06:23:42;101951.06;;;15.87;68.98
4273;BME280;63887;53.656;9.810;2023-05-12T06:26:08;101944.25;;;16.13;66.37
4273;BME280;63887;53.656;9.810;2023-05-12T06:28:35;101943.63;;;16.67;64.68
4273;BME280;63887;53.656;9.810;2023-05-12T06:31:02;101946.50;;;17.20;62.80
4273;BME280;63887;53.656;9.810;2023-05-12T06:33:31;101946.03;;;17.27;62.16
4273;BME280;63887;53.656;9.810;2023-05-12T06:35:59;101947.22;;;17.77;60.77
4273;BME280;63887;53.656;9.810;2023-05-12T06:38:25;101947.97;;;17.79;60.08
4273;BME280;63887;53.656;9.810;2023-05-12T06:40:51;101951.88;;;18.01;59.84
4273;BME280;63887;53.656;9.810;2023-05-12T06:43:17;101952.53;;;18.17;58.05
4273;BME280;63887;53.656;9.810;2023-05-12T06:45:44;101958.31;;;18.49;56.28
4273;BME280;63887;53.656;9.810;2023-05-12T06:48:10;101960.84;;;18.89;54.59
4273;BME280;63887;53.656;9.810;2023-05-12T06:50:36;101961.25;;;19.21;54.24
4273;BME280;63887;53.656;9.810;2023-05-12T06:53:04;101955.94;;;19.45;54.44
4273;BME280;63887;53.656;9.810;2023-05-12T06:55:32;101957.88;;;19.79;53.38
4273;BME280;63887;53.656;9.810;2023-05-12T06:57:58;101955.28;;;19.54;53.02
4273;BME280;63887;53.656;9.810;2023-05-12T07:00:25;101966.06;;;19.40;53.65
4273;BME280;63887;53.656;9.810;2023-05-12T07:02:54;101958.59;;;19.57;53.10
4273;BME280;63887;53.656;9.810;2023-05-12T07:05:20;101960.69;;;19.65;53.13
4273;BME280;63887;53.656;9.810;2023-05-12T07:07:47;101968.69;;;19.65;51.94
4273;BME280;63887;53.656;9.810;2023-05-12T07:10:14;101964.88;;;19.80;51.38
4273;BME280;63887;53.656;9.810;2023-05-12T07:12:41;101966.75;;;19.67;52.12
4273;BME280;63887;53.656;9.810;2023-05-12T07:15:08;101975.19;;;19.48;52.90
4273;BME280;63887;53.656;9.810;2023-05-12T07:17:34;101966.47;;;19.46;52.09
4273;BME280;63887;53.656;9.810;2023-05-12T07:20:01;101975.94;;;19.14;52.62
4273;BME280;63887;53.656;9.810;2023-05-12T07:22:28;101977.28;;;19.19;52.94
4273;BME280;63887;53.656;9.810;2023-05-12T07:24:56;101976.75;;;19.27;52.16
4273;BME280;63887;53.656;9.810;2023-05-12T07:27:23;101973.31;;;19.38;52.09
4273;BME280;63887;53.656;9.810;2023-05-12T07:29:50;101985.47;;;19.29;52.16
4273;BME280;63887;53.656;9.810;2023-05-12T07:32:16;101988.75;;;19.32;50.40
4273;BME280;63887;53.656;9.810;2023-05-12T07:34:42;101981.59;;;19.09;50.91
4273;BME280;63887;53.656;9.810;2023-05-12T07:37:08;101986.28;;;18.93;51.96
4273;BME280;63887;53.656;9.810;2023-05-12T07:39:35;101983.16;;;19.48;51.28
4273;BME280;63887;53.656;9.810;2023-05-12T07:42:01;101983.03;;;19.62;50.93
4273;BME280;63887;53.656;9.810;2023-05-12T07:44:29;101986.06;;;19.58;50.99
4273;BME280;63887;53.656;9.810;2023-05-12T07:46:57;101978.69;;;20.20;49.87
4273;BME280;63887;53.656;9.810;2023-05-12T07:49:23;101975.69;;;20.71;47.41
4273;BME280;63887;53.656;9.810;2023-05-12T07:51:49;101984.66;;;20.70;46.94
4273;BME280;63887;53.656;9.810;2023-05-12T07:54:16;101977.59;;;20.47;46.90
4273;BME280;63887;53.656;9.810;2023-05-12T07:56:42;101985.50;;;20.82;47.15
4273;BME280;63887;53.656;9.810;2023-05-12T07:59:09;101980.31;;;21.25;47.45
4273;BME280;63887;53.656;9.810;2023-05-12T08:01:38;101983.31;;;21.21;47.53
4273;BME280;63887;53.656;9.810;2023-05-12T08:04:04;101982.56;;;21.52;48.06
4273;BME280;63887;53.656;9.810;2023-05-12T08:06:31;101986.13;;;20.86;49.65
4273;BME280;63887;53.656;9.810;2023-05-12T08:08:58;101988.19;;;21.04;49.31
4273;BME280;63887;53.656;9.810;2023-05-12T08:11:24;101988.66;;;20.53;49.61
4273;BME280;63887;53.656;9.810;2023-05-12T08:13:51;101991.41;;;20.52;50.74
4273;BME280;63887;53.656;9.810;2023-05-12T08:16:17;101992.38;;;20.51;50.05
4273;BME280;63887;53.656;9.810;2023-05-12T08:18:45;102002.47;;;20.59;50.67
4273;BME280;63887;53.656;9.810;2023-05-12T08:21:11;102001.31;;;20.39;50.78
4273;BME280;63887;53.656;9.810;2023-05-12T08:23:37;101998.91;;;20.12;51.07
4273;BME280;63887;53.656;9.810;2023-05-12T08:26:04;102000.97;;;20.43;50.74
4273;BME280;63887;53.656;9.810;2023-05-12T08:28:30;102000.16;;;20.65;49.83
4273;BME280;63887;53.656;9.810;2023-05-12T08:30:56;102000.44;;;20.96;48.05
4273;BME280;63887;53.656;9.810;2023-05-12T08:33:23;101997.03;;;20.71;48.65
4273;BME280;63887;53.656;9.810;2023-05-12T08:35:50;101999.78;;;20.59;49.33
4273;BME280;63887;53.656;9.810;2023-05-12T08:38:17;102006.78;;;20.48;49.45
4273;BME280;63887;53.656;9.810;2023-05-12T08:40:45;102000.16;;;20.65;48.10
4273;BME280;63887;53.656;9.810;2023-05-12T08:43:14;102007.31;;;20.76;48.76
4273;BME280;63887;53.656;9.810;2023-05-12T08:45:43;102000.91;;;20.78;47.46
4273;BME280;63887;53.656;9.810;2023-05-12T08:48:10;102005.50;;;20.65;48.54
4273;BME280;63887;53.656;9.810;2023-05-12T08:50:39;102012.75;;;20.63;48.83
4273;BME280;63887;53.656;9.810;2023-05-12T08:53:07;102008.78;;;20.69;47.20
4273;BME280;63887;53.656;9.810;2023-05-12T08:55:35;102011.69;;;20.77;47.93
4273;BME280;63887;53.656;9.810;2023-05-12T08:58:02;102001.84;;;20.55;47.72
4273;BME280;63887;53.656;9.810;2023-05-12T09:00:28;102007.50;;;20.50;46.15
4273;BME280;63887;53.656;9.810;2023-05-12T09:02:56;102007.06;;;20.57;46.78
4273;BME280;63887;53.656;9.810;2023-05-12T09:05:24;102002.97;;;20.29;46.54
4273;BME280;63887;53.656;9.810;2023-05-12T09:07:52;102006.72;;;20.37;47.22
4273;BME280;63887;53.656;9.810;2023-05-12T09:10:21;102003.75;;;20.42;47.65
4273;BME280;63887;53.656;9.810;2023-05-12T09:12:47;102005.34;;;20.44;47.06
4273;BME280;63887;53.656;9.810;2023-05-12T09:15:17;102000.34;;;20.40;46.33
4273;BME280;63887;53.656;9.810;2023-05-12T09:17:45;101996.16;;;20.24;46.87
4273;BME280;63887;53.656;9.810;2023-05-12T09:20:11;101997.88;;;20.37;46.94
4273;BME280;63887;53.656;9.810;2023-05-12T09:22:38;102001.63;;;20.34;47.02
4273;BME280;63887;53.656;9.810;2023-05-12T09:25:13;101998.78;;;20.48;43.14
4273;BME280;63887;53.656;9.810;2023-05-12T09:27:41;102000.25;;;20.41;43.92
4273;BME280;63887;53.656;9.810;2023-05-12T09:30:08;101998.63;;;20.39;42.96
4273;BME280;63887;53.656;9.810;2023-05-12T09:32:35;101997.16;;;20.35;44.57
4273;BME280;63887;53.656;9.810;2023-05-12T09:35:01;101997.34;;;20.44;43.71
4273;BME280;63887;53.656;9.810;2023-05-12T09:37:29;101999.19;;;20.66;43.03
4273;BME280;63887;53.656;9.810;2023-05-12T09:39:57;101995.94;;;20.74;39.78
4273;BME280;63887;53.656;9.810;2023-05-12T09:42:24;102007.09;;;20.90;40.13
4273;BME280;63887;53.656;9.810;2023-05-12T09:44:54;102001.03;;;20.88;40.15
4273;BME280;63887;53.656;9.810;2023-05-12T09:47:25;101997.88;;;20.94;40.04
4273;BME280;63887;53.656;9.810;2023-05-12T09:49:52;101999.09;;;20.90;39.57
4273;BME280;63887;53.656;9.810;2023-05-12T09:52:20;102004.56;;;20.89;38.22
4273;BME280;63887;53.656;9.810;2023-05-12T09:54:47;101990.97;;;21.03;37.97
4273;BME280;63887;53.656;9.810;2023-05-12T09:57:14;101997.03;;;21.05;39.15
4273;BME280;63887;53.656;9.810;2023-05-12T09:59:41;101994.88;;;20.99;38.70
4273;BME280;63887;53.656;9.810;2023-05-12T10:02:10;101996.06;;;21.06;38.48
4273;BME280;63887;53.656;9.810;2023-05-12T10:04:41;101995.22;;;21.17;38.08
4273;BME280;63887;53.656;9.810;2023-05-12T10:07:10;101991.94;;;21.02;37.93
4273;BME280;63887;53.656;9.810;2023-05-12T10:09:37;102001.66;;;21.14;37.56
4273;BME280;63887;53.656;9.810;2023-05-12T10:12:06;101991.31;;;21.09;37.17
4273;BME280;63887;53.656;9.810;2023-05-12T10:14:33;101990.72;;;21.06;37.44
4273;BME280;63887;53.656;9.810;2023-05-12T10:16:59;101992.91;;;21.12;36.94
4273;BME280;63887;53.656;9.810;2023-05-12T10:19:28;101996.69;;;21.43;37.10
4273;BME280;63887;53.656;9.810;2023-05-12T10:21:55;101994.16;;;21.30;37.98
4273;BME280;63887;53.656;9.810;2023-05-12T10:24:21;101995.59;;;21.34;35.41
4273;BME280;63887;53.656;9.810;2023-05-12T10:26:50;101990.84;;;21.27;36.02
4273;BME280;63887;53.656;9.810;2023-05-12T10:29:18;101993.31;;;21.30;35.79
4273;BME280;63887;53.656;9.810;2023-05-12T10:31:44;101986.63;;;21.35;35.72
4273;BME280;63887;53.656;9.810;2023-05-12T10:34:15;101987.94;;;21.41;36.26
4273;BME280;63887;53.656;9.810;2023-05-12T10:36:43;101985.84;;;21.56;35.67
4273;BME280;63887;53.656;9.810;2023-05-12T10:39:11;101984.81;;;21.79;35.39
4273;BME280;63887;53.656;9.810;2023-05-12T10:41:38;101985.53;;;22.13;34.94
4273;BME280;63887;53.656;9.810;2023-05-12T10:44:04;101977.72;;;22.21;34.52
4273;BME280;63887;53.656;9.810;2023-05-12T10:46:31;101982.94;;;22.23;34.50
4273;BME280;63887;53.656;9.810;2023-05-12T10:48:57;101986.66;;;22.52;34.42
4273;BME280;63887;53.656;9.810;2023-05-12T10:51:24;101990.50;;;22.59;34.28
4273;BME280;63887;53.656;9.810;2023-05-12T10:53:55;101985.97;;;22.60;33.88
4273;BME280;63887;53.656;9.810;2023-05-12T10:56:23;101989.09;;;22.35;34.08
4273;BME280;63887;53.656;9.810;2023-05-12T11:01:30;101989.72;;;22.06;35.09
4273;BME280;63887;53.656;9.810;2023-05-12T11:03:57;101992.69;;;22.13;36.88
4273;BME280;63887;53.656;9.810;2023-05-12T11:06:24;101992.00;;;21.99;37.41
4273;BME280;63887;53.656;9.810;2023-05-12T11:08:54;101984.81;;;21.79;37.47
4273;BME280;63887;53.656;9.810;2023-05-12T11:11:20;101995.63;;;21.78;35.95
4273;BME280;63887;53.656;9.810;2023-05-12T11:13:47;101987.59;;;21.78;35.71
4273;BME280;63887;53.656;9.810;2023-05-12T11:16:13;101996.03;;;21.62;36.27
4273;BME280;63887;53.656;9.810;2023-05-12T11:18:39;101986.72;;;21.45;35.96
4273;BME280;63887;53.656;9.810;2023-05-12T11:21:09;101989.28;;;21.47;34.69
4273;BME280;63887;53.656;9.810;2023-05-12T11:23:35;101994.47;;;21.59;34.63
4273;BME280;63887;53.656;9.810;2023-05-12T11:26:03;101991.56;;;21.51;35.01
4273;BME280;63887;53.656;9.810;2023-05-12T11:28:37;101991.56;;;21.51;34.33
4273;BME280;63887;53.656;9.810;2023-05-12T11:31:04;102000.88;;;21.57;32.50
4273;BME280;63887;53.656;9.810;2023-05-12T11:33:30;101987.19;;;21.50;34.39
4273;BME280;63887;53.656;9.810;2023-05-12T11:35:56;101995.16;;;21.72;34.74
4273;BME280;63887;53.656;9.810;2023-05-12T11:38:23;101988.31;;;21.80;34.64
4273;BME280;63887;53.656;9.810;2023-05-12T11:40:51;101996.16;;;21.92;32.71
4273;BME280;63887;53.656;9.810;2023-05-12T11:43:19;101990.69;;;22.05;31.21
4273;BME280;63887;53.656;9.810;2023-05-12T11:45:46;101987.75;;;21.97;30.57
4273;BME280;63887;53.656;9.810;2023-05-12T11:48:13;101989.94;;;22.03;30.52
4273;BME280;63887;53.656;9.810;2023-05-12T11:50:40;101993.09;;;21.97;32.03
4273;BME280;63887;53.656;9.810;2023-05-12T11:53:08;101996.81;;;22.17;29.72
4273;BME280;63887;53.656;9.810;2023-05-12T11:55:36;102003.91;;;22.07;28.03
4273;BME280;63887;53.656;9.810;2023-05-12T11:58:02;102000.13;;;21.77;29.77
4273;BME280;63887;53.656;9.810;2023-05-12T12:00:33;101992.81;;;21.79;29.98
4273;BME280;63887;53.656;9.810;2023-05-12T12:03:09;102003.38;;;21.81;28.75
4273;BME280;63887;53.656;9.810;2023-05-12T12:05:36;101999.09;;;21.89;28.69
4273;BME280;63887;53.656;9.810;2023-05-12T12:08:03;101996.72;;;21.75;29.14
4273;BME280;63887;53.656;9.810;2023-05-12T12:10:29;101994.38;;;21.82;29.79
4273;BME280;63887;53.656;9.810;2023-05-12T12:12:56;102002.41;;;21.82;29.59
4273;BME280;63887;53.656;9.810;2023-05-12T12:15:22;102008.72;;;21.81;30.10
4273;BME280;63887;53.656;9.810;2023-05-12T12:17:50;102000.81;;;21.90;29.55
4273;BME280;63887;53.656;9.810;2023-05-12T12:20:16;101996.72;;;21.75;30.38
4273;BME280;63887;53.656;9.810;2023-05-12T12:22:42;101996.72;;;21.75;30.22
4273;BME280;63887;53.656;9.810;2023-05-12T12:25:09;102000.19;;;21.87;30.37
4273;BME280;63887;53.656;9.810;2023-05-12T12:27:35;102006.75;;;21.83;29.90
4273;BME280;63887;53.656;9.810;2023-05-12T12:30:02;101996.88;;;21.62;31.58
4273;BME280;63887;53.656;9.810;2023-05-12T12:32:29;102002.22;;;21.94;29.76
4273;BME280;63887;53.656;9.810;2023-05-12T12:34:56;101987.47;;;21.79;31.36
4273;BME280;63887;53.656;9.810;2023-05-12T12:37:24;101998.75;;;21.83;31.09
4273;BME280;63887;53.656;9.810;2023-05-12T12:39:50;101997.69;;;21.74;31.82
4273;BME280;63887;53.656;9.810;2023-05-12T12:42:16;101994.47;;;21.91;30.23
4273;BME280;63887;53.656;9.810;2023-05-12T12:44:42;101995.19;;;21.93;30.11
4273;BME280;63887;53.656;9.810;2023-05-12T12:47:10;101997.16;;;21.91;29.74
4273;BME280;63887;53.656;9.810;2023-05-12T12:49:36;102002.94;;;21.96;29.34
4273;BME280;63887;53.656;9.810;2023-05-12T12:52:04;101995.09;;;21.84;30.41
4273;BME280;63887;53.656;9.810;2023-05-12T12:54:31;101985.34;;;21.94;29.99
4273;BME280;63887;53.656;9.810;2023-05-12T12:56:57;101987.91;;;21.95;29.45
4273;BME280;63887;53.656;9.810;2023-05-12T12:59:23;101984.84;;;22.00;29.98
4273;BME280;63887;53.656;9.810;2023-05-12T13:01:50;101989.00;;;21.93;29.47